Las Vegas Municipal Airport Las Vegas US
ICAO: KLVS
IATA: LVS
Category: Medium
Scheduled Services: No

Elevation: 6877 ft
TransAlt. 18000 ft.

Airport Communications:
ASOS:118.525
ALBUQUERQUE CNTR:132.8
ALBUQUERQUE RDO:122.6
CTAF/UNICOM:122.8

KLVS Zoom In..

If you have problems with the map follow the link
https://www.worldairports.se/pages/airport.php?
ICAO=KLVS

Runways:

(A) RW 02 length 5006 ft width 75 ft
---- / hdg 22

(B) RW 14 length 8199 ft width 75 ft
---- / hdg 139

(C) RW 20 length 5006 ft width 75 ft
---- / hdg 202

(D) RW 32 length 8199 ft width 75 ft
---- / hdg 319

Location; KLVS
Day. 06 / Time. 02.53 Zulu
* Altimeter: 30.18
* Temperature: 01° c. 33.8°f.
* Wind from: 350° Speed 08 kn.
Dewpoint: -04° c.
Visibility: 10 Statute Miles.
Clouds: Clear (automated report).

KLVS 060253Z AUTO 35008KT 10SM CLR 01/M04 A3018 RMK AO2 SLP192 T00111039 53028


Wind From 350°
Speed 08 kn.

 
 
jpsmedia worldairports.se 2019   terms of use